sensor_id;sensor_type;location;lat;lon;timestamp;P1;durP1;ratioP1;P2;durP2;ratioP2
11685;SDS011;5899;51.282;6.094;2023-07-31T00:00:38;5.88;;;2.85;;
11685;SDS011;5899;51.282;6.094;2023-07-31T00:03:23;7.53;;;2.97;;
11685;SDS011;5899;51.282;6.094;2023-07-31T00:05:58;5.68;;;2.97;;
11685;SDS011;5899;51.282;6.094;2023-07-31T00:09:08;8.25;;;3.42;;
11685;SDS011;5899;51.282;6.094;2023-07-31T00:11:52;6.03;;;2.95;;
11685;SDS011;5899;51.282;6.094;2023-07-31T00:18:23;5.38;;;2.55;;
11685;SDS011;5899;51.282;6.094;2023-07-31T00:20:26;6.50;;;3.10;;
11685;SDS011;5899;51.282;6.094;2023-07-31T00:23:20;6.40;;;2.85;;
11685;SDS011;5899;51.282;6.094;2023-07-31T00:26:48;5.15;;;2.80;;
11685;SDS011;5899;51.282;6.094;2023-07-31T00:58:36;5.33;;;3.17;;
11685;SDS011;5899;51.282;6.094;2023-07-31T01:01:09;3.55;;;2.58;;
11685;SDS011;5899;51.282;6.094;2023-07-31T01:04:09;5.97;;;2.50;;
11685;SDS011;5899;51.282;6.094;2023-07-31T01:07:03;5.55;;;2.63;;
11685;SDS011;5899;51.282;6.094;2023-07-31T01:09:49;7.95;;;3.17;;
11685;SDS011;5899;51.282;6.094;2023-07-31T01:12:34;7.97;;;3.30;;
11685;SDS011;5899;51.282;6.094;2023-07-31T01:15:17;8.57;;;3.97;;
11685;SDS011;5899;51.282;6.094;2023-07-31T01:23:56;5.03;;;2.55;;
11685;SDS011;5899;51.282;6.094;2023-07-31T01:26:40;4.78;;;2.85;;
11685;SDS011;5899;51.282;6.094;2023-07-31T01:30:07;4.37;;;2.60;;
11685;SDS011;5899;51.282;6.094;2023-07-31T01:33:08;5.35;;;2.88;;
11685;SDS011;5899;51.282;6.094;2023-07-31T01:35:38;6.38;;;2.90;;
11685;SDS011;5899;51.282;6.094;2023-07-31T01:41:17;4.88;;;3.03;;
11685;SDS011;5899;51.282;6.094;2023-07-31T01:46:43;6.95;;;3.08;;
11685;SDS011;5899;51.282;6.094;2023-07-31T01:51:22;7.05;;;3.05;;
11685;SDS011;5899;51.282;6.094;2023-07-31T01:52:23;7.70;;;3.10;;
11685;SDS011;5899;51.282;6.094;2023-07-31T01:55:05;6.70;;;3.17;;
11685;SDS011;5899;51.282;6.094;2023-07-31T02:00:40;3.77;;;2.53;;
11685;SDS011;5899;51.282;6.094;2023-07-31T02:39:12;6.28;;;3.13;;
11685;SDS011;5899;51.282;6.094;2023-07-31T02:41:58;6.95;;;3.63;;
11685;SDS011;5899;51.282;6.094;2023-07-31T02:44:31;5.78;;;3.22;;
11685;SDS011;5899;51.282;6.094;2023-07-31T02:47:22;7.60;;;3.00;;
11685;SDS011;5899;51.282;6.094;2023-07-31T02:50:18;5.80;;;2.95;;
11685;SDS011;5899;51.282;6.094;2023-07-31T02:56:14;5.97;;;3.20;;
11685;SDS011;5899;51.282;6.094;2023-07-31T02:59:32;5.75;;;3.45;;
11685;SDS011;5899;51.282;6.094;2023-07-31T03:05:23;6.40;;;2.95;;
11685;SDS011;5899;51.282;6.094;2023-07-31T03:07:58;3.97;;;2.67;;
11685;SDS011;5899;51.282;6.094;2023-07-31T03:13:36;5.78;;;2.70;;
11685;SDS011;5899;51.282;6.094;2023-07-31T03:16:25;4.85;;;3.20;;
11685;SDS011;5899;51.282;6.094;2023-07-31T03:19:16;3.97;;;2.90;;
11685;SDS011;5899;51.282;6.094;2023-07-31T03:21:48;6.88;;;3.35;;
11685;SDS011;5899;51.282;6.094;2023-07-31T03:26:41;6.00;;;2.85;;
11685;SDS011;5899;51.282;6.094;2023-07-31T03:27:48;6.88;;;3.22;;
11685;SDS011;5899;51.282;6.094;2023-07-31T03:33:52;6.65;;;2.88;;
11685;SDS011;5899;51.282;6.094;2023-07-31T03:37:36;6.22;;;3.55;;
11685;SDS011;5899;51.282;6.094;2023-07-31T03:39:40;5.03;;;2.70;;
11685;SDS011;5899;51.282;6.094;2023-07-31T03:42:59;5.72;;;2.90;;
11685;SDS011;5899;51.282;6.094;2023-07-31T03:50:43;4.63;;;3.22;;
11685;SDS011;5899;51.282;6.094;2023-07-31T04:21:43;5.03;;;3.20;;
11685;SDS011;5899;51.282;6.094;2023-07-31T04:24:58;5.10;;;3.03;;
11685;SDS011;5899;51.282;6.094;2023-07-31T04:33:38;5.70;;;3.40;;
11685;SDS011;5899;51.282;6.094;2023-07-31T04:36:22;5.40;;;3.50;;
11685;SDS011;5899;51.282;6.094;2023-07-31T04:47:59;6.63;;;3.60;;
11685;SDS011;5899;51.282;6.094;2023-07-31T04:59:26;6.93;;;3.47;;
11685;SDS011;5899;51.282;6.094;2023-07-31T05:06:08;4.72;;;3.25;;
11685;SDS011;5899;51.282;6.094;2023-07-31T05:09:02;4.88;;;3.17;;
11685;SDS011;5899;51.282;6.094;2023-07-31T05:12:55;4.78;;;3.05;;
11685;SDS011;5899;51.282;6.094;2023-07-31T05:18:14;5.72;;;3.38;;
11685;SDS011;5899;51.282;6.094;2023-07-31T05:24:06;6.43;;;3.58;;
11685;SDS011;5899;51.282;6.094;2023-07-31T05:29:44;4.30;;;3.08;;
11685;SDS011;5899;51.282;6.094;2023-07-31T05:33:46;3.85;;;3.42;;
11685;SDS011;5899;51.282;6.094;2023-07-31T05:36:02;5.95;;;3.25;;
11685;SDS011;5899;51.282;6.094;2023-07-31T06:11:29;6.20;;;3.30;;
11685;SDS011;5899;51.282;6.094;2023-07-31T06:14:33;4.82;;;3.53;;
11685;SDS011;5899;51.282;6.094;2023-07-31T06:23:24;3.83;;;3.15;;
11685;SDS011;5899;51.282;6.094;2023-07-31T06:26:29;4.72;;;3.40;;
11685;SDS011;5899;51.282;6.094;2023-07-31T06:29:05;4.78;;;3.10;;
11685;SDS011;5899;51.282;6.094;2023-07-31T06:31:46;4.93;;;3.38;;
11685;SDS011;5899;51.282;6.094;2023-07-31T06:34:35;4.30;;;3.35;;
11685;SDS011;5899;51.282;6.094;2023-07-31T06:40:18;5.43;;;3.25;;
11685;SDS011;5899;51.282;6.094;2023-07-31T06:42:52;6.68;;;3.47;;
11685;SDS011;5899;51.282;6.094;2023-07-31T06:45:31;4.15;;;2.90;;
11685;SDS011;5899;51.282;6.094;2023-07-31T06:48:02;4.80;;;2.83;;
11685;SDS011;5899;51.282;6.094;2023-07-31T06:50:48;4.38;;;3.20;;
11685;SDS011;5899;51.282;6.094;2023-07-31T06:53:34;4.45;;;2.97;;
11685;SDS011;5899;51.282;6.094;2023-07-31T06:56:08;4.73;;;3.43;;
11685;SDS011;5899;51.282;6.094;2023-07-31T06:58:37;4.18;;;3.17;;
11685;SDS011;5899;51.282;6.094;2023-07-31T07:01:15;4.67;;;2.93;;
11685;SDS011;5899;51.282;6.094;2023-07-31T07:04:32;7.93;;;3.60;;
11685;SDS011;5899;51.282;6.094;2023-07-31T07:06:55;4.53;;;3.28;;
11685;SDS011;5899;51.282;6.094;2023-07-31T07:09:27;3.80;;;2.80;;
11685;SDS011;5899;51.282;6.094;2023-07-31T07:13:36;4.78;;;2.95;;
11685;SDS011;5899;51.282;6.094;2023-07-31T07:14:43;3.70;;;3.00;;
11685;SDS011;5899;51.282;6.094;2023-07-31T07:17:35;4.85;;;3.17;;
11685;SDS011;5899;51.282;6.094;2023-07-31T07:20:15;4.82;;;3.00;;
11685;SDS011;5899;51.282;6.094;2023-07-31T07:22:45;3.92;;;2.88;;
11685;SDS011;5899;51.282;6.094;2023-07-31T07:25:11;2.80;;;2.50;;
11685;SDS011;5899;51.282;6.094;2023-07-31T07:27:40;3.63;;;2.65;;
11685;SDS011;5899;51.282;6.094;2023-07-31T07:30:31;4.00;;;2.70;;
11685;SDS011;5899;51.282;6.094;2023-07-31T07:33:00;3.40;;;2.50;;
11685;SDS011;5899;51.282;6.094;2023-07-31T07:35:28;3.17;;;2.47;;
11685;SDS011;5899;51.282;6.094;2023-07-31T07:37:58;2.90;;;2.30;;
11685;SDS011;5899;51.282;6.094;2023-07-31T07:40:33;3.70;;;2.38;;
11685;SDS011;5899;51.282;6.094;2023-07-31T07:43:11;5.28;;;2.90;;
11685;SDS011;5899;51.282;6.094;2023-07-31T07:45:40;3.33;;;2.58;;
11685;SDS011;5899;51.282;6.094;2023-07-31T07:48:14;3.75;;;2.78;;
11685;SDS011;5899;51.282;6.094;2023-07-31T07:50:44;4.97;;;2.90;;
11685;SDS011;5899;51.282;6.094;2023-07-31T07:53:20;2.63;;;2.28;;
11685;SDS011;5899;51.282;6.094;2023-07-31T07:55:48;4.00;;;2.45;;
11685;SDS011;5899;51.282;6.094;2023-07-31T07:58:20;3.80;;;2.33;;
11685;SDS011;5899;51.282;6.094;2023-07-31T08:00:56;3.95;;;2.60;;
11685;SDS011;5899;51.282;6.094;2023-07-31T08:08:58;5.18;;;2.80;;
11685;SDS011;5899;51.282;6.094;2023-07-31T08:11:25;3.50;;;2.75;;
11685;SDS011;5899;51.282;6.094;2023-07-31T08:13:54;3.87;;;2.57;;
11685;SDS011;5899;51.282;6.094;2023-07-31T08:16:27;4.97;;;2.90;;
11685;SDS011;5899;51.282;6.094;2023-07-31T08:19:09;3.95;;;3.20;;
11685;SDS011;5899;51.282;6.094;2023-07-31T08:21:41;3.40;;;2.53;;
11685;SDS011;5899;51.282;6.094;2023-07-31T08:24:10;4.38;;;2.90;;
11685;SDS011;5899;51.282;6.094;2023-07-31T08:26:37;5.93;;;2.90;;
11685;SDS011;5899;51.282;6.094;2023-07-31T08:29:07;3.90;;;2.85;;
11685;SDS011;5899;51.282;6.094;2023-07-31T08:31:34;4.70;;;2.70;;
11685;SDS011;5899;51.282;6.094;2023-07-31T08:34:18;3.23;;;2.63;;
11685;SDS011;5899;51.282;6.094;2023-07-31T08:36:47;4.07;;;2.75;;
11685;SDS011;5899;51.282;6.094;2023-07-31T08:39:33;2.95;;;2.55;;
11685;SDS011;5899;51.282;6.094;2023-07-31T08:42:07;3.95;;;2.42;;
11685;SDS011;5899;51.282;6.094;2023-07-31T08:45:18;3.22;;;2.45;;
11685;SDS011;5899;51.282;6.094;2023-07-31T08:48:38;5.32;;;2.70;;
11685;SDS011;5899;51.282;6.094;2023-07-31T08:50:24;3.92;;;2.85;;
11685;SDS011;5899;51.282;6.094;2023-07-31T08:52:53;3.47;;;2.85;;
11685;SDS011;5899;51.282;6.094;2023-07-31T08:55:27;3.30;;;2.70;;
11685;SDS011;5899;51.282;6.094;2023-07-31T08:58:10;3.95;;;3.20;;
11685;SDS011;5899;51.282;6.094;2023-07-31T09:00:40;3.35;;;2.70;;
11685;SDS011;5899;51.282;6.094;2023-07-31T09:03:13;4.15;;;2.42;;
11685;SDS011;5899;51.282;6.094;2023-07-31T09:05:55;4.55;;;2.80;;
11685;SDS011;5899;51.282;6.094;2023-07-31T09:08:33;3.95;;;2.60;;
11685;SDS011;5899;51.282;6.094;2023-07-31T09:11:07;4.93;;;2.65;;
11685;SDS011;5899;51.282;6.094;2023-07-31T09:14:06;3.63;;;2.83;;
11685;SDS011;5899;51.282;6.094;2023-07-31T09:16:36;3.97;;;2.75;;
11685;SDS011;5899;51.282;6.094;2023-07-31T09:19:27;3.15;;;2.72;;
11685;SDS011;5899;51.282;6.094;2023-07-31T09:22:01;4.85;;;2.90;;
11685;SDS011;5899;51.282;6.094;2023-07-31T09:25:11;5.50;;;3.50;;
11685;SDS011;5899;51.282;6.094;2023-07-31T09:27:58;3.22;;;2.65;;
11685;SDS011;5899;51.282;6.094;2023-07-31T09:30:48;3.83;;;2.60;;
11685;SDS011;5899;51.282;6.094;2023-07-31T09:33:30;3.35;;;2.70;;
11685;SDS011;5899;51.282;6.094;2023-07-31T09:36:15;3.17;;;2.70;;
11685;SDS011;5899;51.282;6.094;2023-07-31T09:38:44;3.33;;;2.50;;
11685;SDS011;5899;51.282;6.094;2023-07-31T09:41:12;3.03;;;2.63;;
11685;SDS011;5899;51.282;6.094;2023-07-31T09:43:50;3.90;;;2.83;;
11685;SDS011;5899;51.282;6.094;2023-07-31T09:46:29;3.28;;;2.63;;
11685;SDS011;5899;51.282;6.094;2023-07-31T09:51:46;4.60;;;2.80;;
11685;SDS011;5899;51.282;6.094;2023-07-31T09:54:13;4.63;;;2.80;;
11685;SDS011;5899;51.282;6.094;2023-07-31T09:59:38;2.90;;;2.45;;
11685;SDS011;5899;51.282;6.094;2023-07-31T10:02:25;4.10;;;2.60;;
11685;SDS011;5899;51.282;6.094;2023-07-31T10:05:09;5.27;;;3.00;;
11685;SDS011;5899;51.282;6.094;2023-07-31T10:07:51;4.07;;;2.80;;
11685;SDS011;5899;51.282;6.094;2023-07-31T10:10:29;3.97;;;2.42;;
11685;SDS011;5899;51.282;6.094;2023-07-31T10:13:10;3.85;;;2.55;;
11685;SDS011;5899;51.282;6.094;2023-07-31T10:15:40;2.85;;;2.50;;
11685;SDS011;5899;51.282;6.094;2023-07-31T10:18:22;2.97;;;2.30;;
11685;SDS011;5899;51.282;6.094;2023-07-31T10:21:02;2.75;;;2.10;;
11685;SDS011;5899;51.282;6.094;2023-07-31T10:23:43;4.35;;;2.25;;
11685;SDS011;5899;51.282;6.094;2023-07-31T10:34:52;3.20;;;2.20;;
11685;SDS011;5899;51.282;6.094;2023-07-31T10:37:28;3.25;;;2.08;;
11685;SDS011;5899;51.282;6.094;2023-07-31T10:40:12;3.17;;;2.00;;
11685;SDS011;5899;51.282;6.094;2023-07-31T10:42:56;3.85;;;2.35;;
11685;SDS011;5899;51.282;6.094;2023-07-31T10:45:42;3.37;;;2.07;;
11685;SDS011;5899;51.282;6.094;2023-07-31T10:48:19;3.00;;;2.00;;
11685;SDS011;5899;51.282;6.094;2023-07-31T10:50:49;3.10;;;2.10;;
11685;SDS011;5899;51.282;6.094;2023-07-31T10:53:29;2.55;;;2.00;;
11685;SDS011;5899;51.282;6.094;2023-07-31T10:56:24;2.60;;;2.00;;
11685;SDS011;5899;51.282;6.094;2023-07-31T10:58:53;2.30;;;2.00;;
11685;SDS011;5899;51.282;6.094;2023-07-31T11:01:27;2.50;;;1.80;;
11685;SDS011;5899;51.282;6.094;2023-07-31T11:04:14;2.28;;;2.03;;
11685;SDS011;5899;51.282;6.094;2023-07-31T11:06:55;3.37;;;2.07;;
11685;SDS011;5899;51.282;6.094;2023-07-31T11:09:22;2.30;;;1.80;;
11685;SDS011;5899;51.282;6.094;2023-07-31T11:11:48;3.20;;;2.20;;
11685;SDS011;5899;51.282;6.094;2023-07-31T11:14:17;3.07;;;2.07;;
11685;SDS011;5899;51.282;6.094;2023-07-31T11:16:43;2.10;;;1.70;;
11685;SDS011;5899;51.282;6.094;2023-07-31T11:19:10;2.33;;;2.05;;
11685;SDS011;5899;51.282;6.094;2023-07-31T11:21:36;2.22;;;1.92;;
11685;SDS011;5899;51.282;6.094;2023-07-31T11:24:04;2.15;;;1.80;;
11685;SDS011;5899;51.282;6.094;2023-07-31T11:26:31;2.83;;;2.00;;
11685;SDS011;5899;51.282;6.094;2023-07-31T11:28:58;2.65;;;2.10;;
11685;SDS011;5899;51.282;6.094;2023-07-31T11:31:25;2.53;;;2.00;;
11685;SDS011;5899;51.282;6.094;2023-07-31T11:34:03;4.32;;;2.10;;
11685;SDS011;5899;51.282;6.094;2023-07-31T11:36:32;2.22;;;1.92;;
11685;SDS011;5899;51.282;6.094;2023-07-31T11:39:05;2.97;;;2.00;;
11685;SDS011;5899;51.282;6.094;2023-07-31T11:41:32;3.10;;;2.25;;
11685;SDS011;5899;51.282;6.094;2023-07-31T11:43:59;3.08;;;2.05;;
11685;SDS011;5899;51.282;6.094;2023-07-31T11:46:26;2.30;;;2.10;;
11685;SDS011;5899;51.282;6.094;2023-07-31T11:48:55;2.60;;;2.03;;
11685;SDS011;5899;51.282;6.094;2023-07-31T11:51:25;2.15;;;1.95;;
11685;SDS011;5899;51.282;6.094;2023-07-31T11:53:52;3.63;;;2.37;;
11685;SDS011;5899;51.282;6.094;2023-07-31T11:56:21;2.53;;;2.00;;
11685;SDS011;5899;51.282;6.094;2023-07-31T11:58:51;2.67;;;2.10;;
11685;SDS011;5899;51.282;6.094;2023-07-31T12:01:22;3.17;;;2.53;;
11685;SDS011;5899;51.282;6.094;2023-07-31T12:03:50;2.60;;;1.88;;
11685;SDS011;5899;51.282;6.094;2023-07-31T12:06:17;2.58;;;2.30;;
11685;SDS011;5899;51.282;6.094;2023-07-31T12:08:46;2.50;;;2.30;;
11685;SDS011;5899;51.282;6.094;2023-07-31T12:11:14;3.10;;;2.40;;
11685;SDS011;5899;51.282;6.094;2023-07-31T12:13:44;3.43;;;2.47;;
11685;SDS011;5899;51.282;6.094;2023-07-31T12:16:10;3.08;;;2.65;;
11685;SDS011;5899;51.282;6.094;2023-07-31T12:18:37;3.53;;;2.70;;
11685;SDS011;5899;51.282;6.094;2023-07-31T12:21:04;5.38;;;2.60;;
11685;SDS011;5899;51.282;6.094;2023-07-31T12:23:32;4.88;;;3.17;;
11685;SDS011;5899;51.282;6.094;2023-07-31T12:26:02;3.40;;;2.60;;
11685;SDS011;5899;51.282;6.094;2023-07-31T12:28:29;3.80;;;2.40;;
11685;SDS011;5899;51.282;6.094;2023-07-31T12:30:58;5.07;;;2.97;;
11685;SDS011;5899;51.282;6.094;2023-07-31T12:33:30;3.10;;;2.33;;
11685;SDS011;5899;51.282;6.094;2023-07-31T12:35:57;4.18;;;2.67;;
11685;SDS011;5899;51.282;6.094;2023-07-31T12:38:23;4.17;;;3.10;;
11685;SDS011;5899;51.282;6.094;2023-07-31T12:40:52;4.40;;;2.65;;
11685;SDS011;5899;51.282;6.094;2023-07-31T12:43:19;3.28;;;2.60;;
11685;SDS011;5899;51.282;6.094;2023-07-31T12:45:45;4.13;;;2.83;;
11685;SDS011;5899;51.282;6.094;2023-07-31T12:48:13;4.47;;;2.90;;
11685;SDS011;5899;51.282;6.094;2023-07-31T12:50:40;4.80;;;3.13;;
11685;SDS011;5899;51.282;6.094;2023-07-31T12:53:07;4.20;;;2.50;;
11685;SDS011;5899;51.282;6.094;2023-07-31T12:55:33;3.53;;;2.92;;
11685;SDS011;5899;51.282;6.094;2023-07-31T12:58:01;4.68;;;2.92;;
11685;SDS011;5899;51.282;6.094;2023-07-31T13:00:28;4.40;;;3.28;;
11685;SDS011;5899;51.282;6.094;2023-07-31T13:02:55;3.72;;;2.90;;
11685;SDS011;5899;51.282;6.094;2023-07-31T13:05:23;3.28;;;2.88;;
11685;SDS011;5899;51.282;6.094;2023-07-31T13:07:49;4.40;;;2.92;;
11685;SDS011;5899;51.282;6.094;2023-07-31T13:13:23;3.70;;;2.85;;
11685;SDS011;5899;51.282;6.094;2023-07-31T13:15:52;4.65;;;2.90;;
11685;SDS011;5899;51.282;6.094;2023-07-31T13:18:19;3.50;;;2.92;;
11685;SDS011;5899;51.282;6.094;2023-07-31T13:21:07;3.30;;;2.75;;
11685;SDS011;5899;51.282;6.094;2023-07-31T13:24:26;4.60;;;3.15;;
11685;SDS011;5899;51.282;6.094;2023-07-31T13:26:52;3.60;;;2.67;;
11685;SDS011;5899;51.282;6.094;2023-07-31T13:29:38;4.10;;;3.00;;
11685;SDS011;5899;51.282;6.094;2023-07-31T13:35:20;3.92;;;3.25;;
11685;SDS011;5899;51.282;6.094;2023-07-31T13:40:49;3.78;;;2.70;;
11685;SDS011;5899;51.282;6.094;2023-07-31T13:43:18;5.15;;;3.47;;
11685;SDS011;5899;51.282;6.094;2023-07-31T13:45:55;4.35;;;2.90;;
11685;SDS011;5899;51.282;6.094;2023-07-31T13:48:24;5.05;;;3.15;;
11685;SDS011;5899;51.282;6.094;2023-07-31T13:51:53;3.92;;;2.83;;
11685;SDS011;5899;51.282;6.094;2023-07-31T13:53:39;4.78;;;3.15;;
11685;SDS011;5899;51.282;6.094;2023-07-31T13:59:37;3.80;;;2.80;;
11685;SDS011;5899;51.282;6.094;2023-07-31T14:02:24;5.03;;;3.28;;
11685;SDS011;5899;51.282;6.094;2023-07-31T14:05:02;4.80;;;3.10;;
11685;SDS011;5899;51.282;6.094;2023-07-31T14:07:53;4.10;;;2.97;;
11685;SDS011;5899;51.282;6.094;2023-07-31T14:10:51;3.60;;;2.92;;
11685;SDS011;5899;51.282;6.094;2023-07-31T14:22:20;6.55;;;3.30;;
11685;SDS011;5899;51.282;6.094;2023-07-31T14:25:35;3.77;;;2.87;;
11685;SDS011;5899;51.282;6.094;2023-07-31T14:31:03;4.85;;;3.08;;
11685;SDS011;5899;51.282;6.094;2023-07-31T14:33:43;4.00;;;2.88;;
11685;SDS011;5899;51.282;6.094;2023-07-31T14:36:11;5.35;;;3.20;;
11685;SDS011;5899;51.282;6.094;2023-07-31T14:39:17;4.07;;;2.87;;
11685;SDS011;5899;51.282;6.094;2023-07-31T14:41:58;4.65;;;3.10;;
11685;SDS011;5899;51.282;6.094;2023-07-31T14:44:57;5.43;;;3.10;;
11685;SDS011;5899;51.282;6.094;2023-07-31T14:47:47;5.35;;;3.55;;
11685;SDS011;5899;51.282;6.094;2023-07-31T14:56:16;6.22;;;3.70;;
11685;SDS011;5899;51.282;6.094;2023-07-31T14:59:02;4.22;;;3.22;;
11685;SDS011;5899;51.282;6.094;2023-07-31T15:02:45;4.70;;;3.03;;
11685;SDS011;5899;51.282;6.094;2023-07-31T15:05:46;4.78;;;3.00;;
11685;SDS011;5899;51.282;6.094;2023-07-31T15:14:24;5.55;;;3.28;;
11685;SDS011;5899;51.282;6.094;2023-07-31T15:20:41;5.68;;;3.40;;
11685;SDS011;5899;51.282;6.094;2023-07-31T15:26:30;4.57;;;2.83;;
11685;SDS011;5899;51.282;6.094;2023-07-31T15:50:35;4.73;;;2.90;;
11685;SDS011;5899;51.282;6.094;2023-07-31T15:56:23;6.47;;;2.95;;
11685;SDS011;5899;51.282;6.094;2023-07-31T15:59:11;3.08;;;2.65;;
11685;SDS011;5899;51.282;6.094;2023-07-31T16:42:10;2.30;;;2.10;;
11685;SDS011;5899;51.282;6.094;2023-07-31T16:44:57;3.47;;;2.03;;
11685;SDS011;5899;51.282;6.094;2023-07-31T16:51:41;2.90;;;2.08;;
11685;SDS011;5899;51.282;6.094;2023-07-31T16:56:36;2.30;;;1.65;;
11685;SDS011;5899;51.282;6.094;2023-07-31T17:02:29;3.05;;;2.13;;
11685;SDS011;5899;51.282;6.094;2023-07-31T17:05:14;3.15;;;1.90;;
11685;SDS011;5899;51.282;6.094;2023-07-31T17:07:50;2.13;;;1.83;;
11685;SDS011;5899;51.282;6.094;2023-07-31T17:10:35;2.42;;;1.85;;
11685;SDS011;5899;51.282;6.094;2023-07-31T17:13:24;2.08;;;1.70;;
11685;SDS011;5899;51.282;6.094;2023-07-31T17:15:58;2.42;;;1.80;;
11685;SDS011;5899;51.282;6.094;2023-07-31T17:18:35;2.60;;;2.00;;
11685;SDS011;5899;51.282;6.094;2023-07-31T17:21:12;2.78;;;2.00;;
11685;SDS011;5899;51.282;6.094;2023-07-31T17:23:43;2.70;;;1.90;;
11685;SDS011;5899;51.282;6.094;2023-07-31T17:26:13;3.20;;;2.10;;
11685;SDS011;5899;51.282;6.094;2023-07-31T17:28:45;3.33;;;2.13;;
11685;SDS011;5899;51.282;6.094;2023-07-31T17:31:22;2.22;;;2.03;;
11685;SDS011;5899;51.282;6.094;2023-07-31T17:33:55;2.45;;;2.15;;
11685;SDS011;5899;51.282;6.094;2023-07-31T17:36:30;2.53;;;2.20;;
11685;SDS011;5899;51.282;6.094;2023-07-31T17:39:02;3.05;;;2.45;;
11685;SDS011;5899;51.282;6.094;2023-07-31T17:41:41;2.25;;;2.00;;
11685;SDS011;5899;51.282;6.094;2023-07-31T17:44:13;2.10;;;1.90;;
11685;SDS011;5899;51.282;6.094;2023-07-31T17:46:50;2.80;;;2.22;;
11685;SDS011;5899;51.282;6.094;2023-07-31T17:49:24;2.55;;;1.98;;
11685;SDS011;5899;51.282;6.094;2023-07-31T17:51:54;2.47;;;2.00;;
11685;SDS011;5899;51.282;6.094;2023-07-31T17:54:36;1.93;;;1.73;;
11685;SDS011;5899;51.282;6.094;2023-07-31T17:57:06;2.00;;;1.80;;
11685;SDS011;5899;51.282;6.094;2023-07-31T17:59:46;2.42;;;1.83;;
11685;SDS011;5899;51.282;6.094;2023-07-31T18:02:16;2.10;;;1.60;;
11685;SDS011;5899;51.282;6.094;2023-07-31T18:07:50;2.35;;;1.83;;
11685;SDS011;5899;51.282;6.094;2023-07-31T18:10:22;1.95;;;1.70;;
11685;SDS011;5899;51.282;6.094;2023-07-31T18:12:52;1.50;;;1.40;;
11685;SDS011;5899;51.282;6.094;2023-07-31T18:15:34;2.63;;;1.97;;
11685;SDS011;5899;51.282;6.094;2023-07-31T18:18:21;2.50;;;1.63;;
11685;SDS011;5899;51.282;6.094;2023-07-31T18:21:15;2.60;;;1.60;;
11685;SDS011;5899;51.282;6.094;2023-07-31T18:23:56;2.10;;;1.80;;
11685;SDS011;5899;51.282;6.094;2023-07-31T18:26:25;1.70;;;1.45;;
11685;SDS011;5899;51.282;6.094;2023-07-31T18:31:40;1.60;;;1.50;;
11685;SDS011;5899;51.282;6.094;2023-07-31T18:34:29;1.67;;;1.52;;
11685;SDS011;5899;51.282;6.094;2023-07-31T18:36:58;3.13;;;1.60;;
11685;SDS011;5899;51.282;6.094;2023-07-31T18:39:33;2.13;;;1.50;;
11685;SDS011;5899;51.282;6.094;2023-07-31T18:42:14;2.30;;;1.60;;
11685;SDS011;5899;51.282;6.094;2023-07-31T18:48:03;2.30;;;1.63;;
11685;SDS011;5899;51.282;6.094;2023-07-31T18:53:33;2.33;;;1.63;;
11685;SDS011;5899;51.282;6.094;2023-07-31T18:56:12;1.80;;;1.50;;
11685;SDS011;5899;51.282;6.094;2023-07-31T19:01:57;1.80;;;1.70;;
11685;SDS011;5899;51.282;6.094;2023-07-31T19:23:04;1.50;;;1.40;;
11685;SDS011;5899;51.282;6.094;2023-07-31T19:27:58;2.50;;;1.48;;
11685;SDS011;5899;51.282;6.094;2023-07-31T19:38:00;1.60;;;1.40;;
11685;SDS011;5899;51.282;6.094;2023-07-31T19:52:12;3.05;;;1.30;;
11685;SDS011;5899;51.282;6.094;2023-07-31T19:58:56;1.50;;;1.27;;
11685;SDS011;5899;51.282;6.094;2023-07-31T20:03:58;1.40;;;1.30;;
11685;SDS011;5899;51.282;6.094;2023-07-31T20:30:37;1.48;;;1.38;;
11685;SDS011;5899;51.282;6.094;2023-07-31T20:33:04;2.47;;;1.52;;
11685;SDS011;5899;51.282;6.094;2023-07-31T20:36:41;1.80;;;1.65;;
11685;SDS011;5899;51.282;6.094;2023-07-31T20:41:26;1.33;;;1.23;;
11685;SDS011;5899;51.282;6.094;2023-07-31T20:44:09;1.38;;;1.27;;
11685;SDS011;5899;51.282;6.094;2023-07-31T20:58:27;2.60;;;1.42;;
11685;SDS011;5899;51.282;6.094;2023-07-31T21:01:16;1.57;;;1.37;;
11685;SDS011;5899;51.282;6.094;2023-07-31T21:04:02;2.40;;;1.33;;
11685;SDS011;5899;51.282;6.094;2023-07-31T21:06:53;1.50;;;1.40;;
11685;SDS011;5899;51.282;6.094;2023-07-31T21:09:30;3.15;;;2.35;;
11685;SDS011;5899;51.282;6.094;2023-07-31T21:12:13;2.90;;;1.58;;
11685;SDS011;5899;51.282;6.094;2023-07-31T21:15:05;16.92;;;9.57;;
11685;SDS011;5899;51.282;6.094;2023-07-31T21:20:33;5.05;;;3.00;;
11685;SDS011;5899;51.282;6.094;2023-07-31T21:23:02;16.55;;;9.55;;
11685;SDS011;5899;51.282;6.094;2023-07-31T21:25:38;12.68;;;6.65;;
11685;SDS011;5899;51.282;6.094;2023-07-31T21:28:18;9.88;;;6.13;;
11685;SDS011;5899;51.282;6.094;2023-07-31T21:30:54;13.57;;;8.10;;
11685;SDS011;5899;51.282;6.094;2023-07-31T21:33:23;7.32;;;4.60;;
11685;SDS011;5899;51.282;6.094;2023-07-31T21:35:53;2.72;;;1.88;;
11685;SDS011;5899;51.282;6.094;2023-07-31T21:38:20;2.97;;;2.08;;
11685;SDS011;5899;51.282;6.094;2023-07-31T21:40:47;4.22;;;2.65;;
11685;SDS011;5899;51.282;6.094;2023-07-31T21:43:28;7.65;;;4.80;;
11685;SDS011;5899;51.282;6.094;2023-07-31T21:45:59;7.50;;;3.97;;
11685;SDS011;5899;51.282;6.094;2023-07-31T21:48:28;15.10;;;6.10;;
11685;SDS011;5899;51.282;6.094;2023-07-31T21:50:56;6.50;;;3.47;;
11685;SDS011;5899;51.282;6.094;2023-07-31T21:53:24;4.95;;;3.10;;
11685;SDS011;5899;51.282;6.094;2023-07-31T21:56:00;3.20;;;1.90;;
11685;SDS011;5899;51.282;6.094;2023-07-31T21:58:42;4.25;;;2.60;;
11685;SDS011;5899;51.282;6.094;2023-07-31T22:01:13;2.25;;;1.63;;
11685;SDS011;5899;51.282;6.094;2023-07-31T22:03:42;2.00;;;1.60;;
11685;SDS011;5899;51.282;6.094;2023-07-31T22:06:25;2.20;;;1.50;;
11685;SDS011;5899;51.282;6.094;2023-07-31T22:08:55;1.70;;;1.30;;
11685;SDS011;5899;51.282;6.094;2023-07-31T22:11:28;1.30;;;1.20;;
11685;SDS011;5899;51.282;6.094;2023-07-31T22:14:05;1.20;;;1.10;;
11685;SDS011;5899;51.282;6.094;2023-07-31T22:16:44;1.30;;;1.20;;
11685;SDS011;5899;51.282;6.094;2023-07-31T22:19:14;1.48;;;1.38;;
11685;SDS011;5899;51.282;6.094;2023-07-31T22:21:41;1.17;;;1.10;;
11685;SDS011;5899;51.282;6.094;2023-07-31T22:24:10;0.93;;;0.93;;
11685;SDS011;5899;51.282;6.094;2023-07-31T22:26:44;1.10;;;1.00;;
11685;SDS011;5899;51.282;6.094;2023-07-31T22:29:11;0.90;;;0.90;;
11685;SDS011;5899;51.282;6.094;2023-07-31T22:31:38;1.10;;;1.00;;
11685;SDS011;5899;51.282;6.094;2023-07-31T22:34:09;2.20;;;1.10;;
11685;SDS011;5899;51.282;6.094;2023-07-31T22:36:40;0.90;;;0.90;;
11685;SDS011;5899;51.282;6.094;2023-07-31T22:39:07;1.05;;;0.95;;
11685;SDS011;5899;51.282;6.094;2023-07-31T22:41:43;1.60;;;0.90;;
11685;SDS011;5899;51.282;6.094;2023-07-31T22:44:20;0.73;;;0.73;;
11685;SDS011;5899;51.282;6.094;2023-07-31T22:47:06;0.70;;;0.70;;
11685;SDS011;5899;51.282;6.094;2023-07-31T22:49:42;1.17;;;0.95;;
11685;SDS011;5899;51.282;6.094;2023-07-31T22:55:25;1.00;;;1.00;;
11685;SDS011;5899;51.282;6.094;2023-07-31T22:57:51;0.80;;;0.80;;
11685;SDS011;5899;51.282;6.094;2023-07-31T23:00:22;1.30;;;1.20;;
11685;SDS011;5899;51.282;6.094;2023-07-31T23:02:59;1.30;;;1.02;;
11685;SDS011;5899;51.282;6.094;2023-07-31T23:05:28;1.85;;;1.48;;
11685;SDS011;5899;51.282;6.094;2023-07-31T23:07:57;1.20;;;1.10;;
11685;SDS011;5899;51.282;6.094;2023-07-31T23:10:29;1.55;;;1.35;;
11685;SDS011;5899;51.282;6.094;2023-07-31T23:13:04;1.13;;;1.02;;
11685;SDS011;5899;51.282;6.094;2023-07-31T23:15:39;0.93;;;0.93;;
11685;SDS011;5899;51.282;6.094;2023-07-31T23:18:08;0.90;;;0.90;;
11685;SDS011;5899;51.282;6.094;2023-07-31T23:20:55;1.23;;;1.13;;
11685;SDS011;5899;51.282;6.094;2023-07-31T23:23:28;1.60;;;1.20;;
11685;SDS011;5899;51.282;6.094;2023-07-31T23:25:59;1.20;;;1.10;;
11685;SDS011;5899;51.282;6.094;2023-07-31T23:28:27;1.80;;;1.35;;
11685;SDS011;5899;51.282;6.094;2023-07-31T23:31:00;1.73;;;1.10;;
11685;SDS011;5899;51.282;6.094;2023-07-31T23:33:26;1.17;;;1.08;;
11685;SDS011;5899;51.282;6.094;2023-07-31T23:36:10;1.77;;;1.20;;
11685;SDS011;5899;51.282;6.094;2023-07-31T23:38:45;2.20;;;1.10;;